createdAt,value
2017-09-04T00:00:00.949Z,101332.98
2017-09-04T00:02:29.309Z,101329.98
2017-09-04T00:04:59.224Z,101333.17
2017-09-04T00:07:27.579Z,101336.73
2017-09-04T00:09:55.958Z,101333.42
2017-09-04T00:12:24.859Z,101344.83
2017-09-04T00:14:53.235Z,101340.52
2017-09-04T00:17:21.606Z,101333.60
2017-09-04T00:19:50.298Z,101336.17
2017-09-04T00:22:19.265Z,101340.27
2017-09-04T00:24:47.639Z,101335.15
2017-09-04T00:27:16.386Z,101330.06
2017-09-04T00:29:44.727Z,101331.53
2017-09-04T00:32:13.789Z,101338.77
2017-09-04T00:34:42.561Z,101337.24
2017-09-04T00:37:11.561Z,101337.42
2017-09-04T00:39:39.890Z,101328.06
2017-09-04T00:42:08.533Z,101333.77
2017-09-04T00:44:37.134Z,101331.53
2017-09-04T00:47:06.409Z,101327.80
2017-09-04T00:49:35.086Z,101323.38
2017-09-04T00:52:04.791Z,101331.46
2017-09-04T00:54:33.162Z,101329.23
2017-09-04T00:57:02.059Z,101333.83
2017-09-04T00:59:30.437Z,101341.52
2017-09-04T01:01:58.806Z,101337.16
2017-09-04T01:04:27.474Z,101337.75
2017-09-04T01:06:56.623Z,101343.20
2017-09-04T01:09:25.895Z,101340.04
2017-09-04T01:11:55.030Z,101333.13
2017-09-04T01:14:24.946Z,101337.27
2017-09-04T01:16:53.319Z,101333.08
2017-09-04T01:19:22.928Z,101331.06
2017-09-04T01:21:51.390Z,101336.69
2017-09-04T01:24:19.791Z,101338.98
2017-09-04T01:26:50.211Z,101339.41
2017-09-04T01:29:18.606Z,101350.64
2017-09-04T01:31:48.652Z,101345.70
2017-09-04T01:34:17.662Z,101342.98
2017-09-04T01:36:46.782Z,101346.26
2017-09-04T01:39:15.144Z,101347.16
2017-09-04T01:41:44.874Z,101350.27
2017-09-04T01:44:16.480Z,101348.31
2017-09-04T01:46:45.202Z,101342.97
2017-09-04T01:49:14.493Z,101342.11
2017-09-04T01:51:42.834Z,101349.41
2017-09-04T01:54:11.555Z,101344.17
2017-09-04T01:56:39.933Z,101341.03
2017-09-04T01:59:08.650Z,101336.45
2017-09-04T02:01:37.508Z,101339.86
2017-09-04T02:04:05.876Z,101336.52
2017-09-04T02:06:34.998Z,101334.23
2017-09-04T02:09:03.812Z,101332.88
2017-09-04T02:11:32.192Z,101332.62
2017-09-04T02:14:00.535Z,101328.57
2017-09-04T02:16:30.658Z,101330.91
2017-09-04T02:18:59.025Z,101323.98
2017-09-04T02:21:27.643Z,101327.80
2017-09-04T02:23:57.496Z,101332.25
2017-09-04T02:26:25.838Z,101326.05
2017-09-04T02:28:54.994Z,101325.52
2017-09-04T02:31:23.802Z,101322.86
2017-09-04T02:33:52.472Z,101322.45
2017-09-04T02:36:20.859Z,101318.05
2017-09-04T02:38:49.865Z,101316.61
2017-09-04T02:41:18.238Z,101314.48
2017-09-04T02:43:46.609Z,101315.01
2017-09-04T02:46:16.357Z,101319.67
2017-09-04T02:48:44.709Z,101312.84
2017-09-04T02:51:13.093Z,101314.70
2017-09-04T02:53:41.777Z,101314.59
2017-09-04T02:56:11.037Z,101318.89
2017-09-04T02:58:39.405Z,101316.36
2017-09-04T03:01:08.790Z,101317.63
2017-09-04T03:03:37.123Z,101321.30
2017-09-04T03:06:06.663Z,101313.75
2017-09-04T03:08:35.291Z,101316.31
2017-09-04T03:11:03.643Z,101315.59
2017-09-04T03:13:31.970Z,101310.37
2017-09-04T03:16:00.853Z,101315.20
2017-09-04T03:18:29.317Z,101313.33
2017-09-04T03:20:57.694Z,101321.27
2017-09-04T03:23:27.167Z,101317.72
2017-09-04T03:25:56.671Z,101321.87
2017-09-04T03:28:25.050Z,101319.11
2017-09-04T03:30:53.749Z,101325.31
2017-09-04T03:33:22.826Z,101321.34
2017-09-04T03:35:51.183Z,101321.40
2017-09-04T03:38:19.871Z,101318.15
2017-09-04T03:40:49.051Z,101326.70
2017-09-04T03:43:17.401Z,101330.38
2017-09-04T03:45:46.345Z,101328.23
2017-09-04T03:48:14.706Z,101332.52
2017-09-04T03:50:43.083Z,101336.06
2017-09-04T03:53:11.801Z,101337.91
2017-09-04T03:55:40.151Z,101335.23
2017-09-04T03:58:08.733Z,101337.88
2017-09-04T04:00:37.379Z,101334.58
2017-09-04T04:03:05.745Z,101336.44
2017-09-04T04:05:34.097Z,101326.38
2017-09-04T04:08:03.827Z,101322.70
2017-09-04T04:10:32.218Z,101324.14
2017-09-04T04:13:00.864Z,101323.40
2017-09-04T04:15:29.605Z,101324.03
2017-09-04T04:17:58.382Z,101320.09
2017-09-04T04:20:27.996Z,101323.55
2017-09-04T04:22:56.726Z,101324.81
2017-09-04T04:25:25.161Z,101325.73
2017-09-04T04:27:53.532Z,101321.75
2017-09-04T04:30:22.266Z,101333.11
2017-09-04T04:32:51.411Z,101327.87
2017-09-04T04:35:19.742Z,101328.37
2017-09-04T04:37:49.961Z,101326.48
2017-09-04T04:40:18.302Z,101325.73
2017-09-04T04:42:46.650Z,101325.59
2017-09-04T04:45:15.502Z,101332.48
2017-09-04T04:47:44.472Z,101332.64
2017-09-04T04:50:16.352Z,101330.28
2017-09-04T04:52:45.243Z,101334.23
2017-09-04T04:55:13.591Z,101335.77
2017-09-04T04:57:42.697Z,101332.83
2017-09-04T05:00:12.175Z,101334.41
2017-09-04T05:02:40.537Z,101340.54
2017-09-04T05:05:09.659Z,101335.57
2017-09-04T05:07:38.290Z,101335.98
2017-09-04T05:10:06.647Z,101338.25
2017-09-04T05:12:35.013Z,101331.52
2017-09-04T05:15:04.483Z,101332.90
2017-09-04T05:17:32.848Z,101331.78
2017-09-04T05:20:01.955Z,101337.21
2017-09-04T05:22:31.428Z,101328.00
2017-09-04T05:24:59.775Z,101327.52
2017-09-04T05:27:29.178Z,101325.78
2017-09-04T05:29:57.962Z,101334.97
2017-09-04T05:32:26.354Z,101329.11
2017-09-04T05:34:54.730Z,101334.75
2017-09-04T05:37:23.434Z,101333.06
2017-09-04T05:39:52.500Z,101338.97
2017-09-04T05:42:20.917Z,101340.53
2017-09-04T05:44:49.648Z,101332.98
2017-09-04T05:47:18.053Z,101339.89
2017-09-04T05:49:46.428Z,101335.63
2017-09-04T05:52:15.490Z,101338.36
2017-09-04T05:54:45.259Z,101336.73
2017-09-04T05:57:13.637Z,101339.77
2017-09-04T05:59:42.492Z,101344.22
2017-09-04T06:02:10.860Z,101342.78
2017-09-04T06:04:39.683Z,101339.70
2017-09-04T06:07:09.918Z,101335.30
2017-09-04T06:09:38.372Z,101331.72
2017-09-04T06:12:07.068Z,101328.47
2017-09-04T06:14:35.700Z,101325.80
2017-09-04T06:17:04.879Z,101322.23
2017-09-04T06:19:35.439Z,101320.47
2017-09-04T06:22:04.545Z,101308.39
2017-09-04T06:24:32.923Z,101311.34
2017-09-04T06:27:04.111Z,101307.19
2017-09-04T06:29:33.013Z,101308.77
2017-09-04T06:32:02.053Z,101307.56
2017-09-04T06:34:30.653Z,101312.94
2017-09-04T06:36:59.548Z,101305.69
2017-09-04T06:39:28.657Z,101312.02
2017-09-04T06:41:57.838Z,101311.83
2017-09-04T06:44:27.690Z,101309.48
2017-09-04T06:46:56.038Z,101314.33
2017-09-04T06:49:24.386Z,101310.86
2017-09-04T06:51:53.920Z,101308.97
2017-09-04T06:54:22.272Z,101315.95
2017-09-04T06:56:50.703Z,101314.52
2017-09-04T06:59:20.267Z,101313.91
2017-09-04T07:01:50.502Z,101307.85
2017-09-04T07:04:22.910Z,101313.47
2017-09-04T07:06:52.580Z,101313.01
2017-09-04T07:09:20.918Z,101316.16
2017-09-04T07:11:49.279Z,101312.87
2017-09-04T07:14:17.951Z,101320.83
2017-09-04T07:16:46.353Z,101324.69
2017-09-04T07:19:15.419Z,101321.28
2017-09-04T07:21:44.793Z,101333.38
2017-09-04T07:24:13.952Z,101341.64
2017-09-04T07:26:42.299Z,101340.28
2017-09-04T07:29:11.775Z,101343.20
2017-09-04T07:31:40.347Z,101349.22
2017-09-04T07:34:09.529Z,101353.11
2017-09-04T07:36:38.184Z,101352.14
2017-09-04T07:39:06.591Z,101356.63
2017-09-04T07:41:34.968Z,101351.08
2017-09-04T07:44:03.601Z,101350.72
2017-09-04T07:46:31.970Z,101349.84
2017-09-04T07:49:00.326Z,101350.83
2017-09-04T07:51:29.117Z,101352.33
2017-09-04T07:53:57.458Z,101355.04
2017-09-04T07:56:25.960Z,101359.84
2017-09-04T07:58:54.839Z,101358.86
2017-09-04T08:01:23.176Z,101355.44
2017-09-04T08:03:51.599Z,101364.60
2017-09-04T08:06:20.464Z,101359.25
2017-09-04T08:08:48.873Z,101364.23
2017-09-04T08:11:17.959Z,101372.50
2017-09-04T08:13:48.864Z,101373.37
2017-09-04T08:16:17.217Z,101376.27
2017-09-04T08:18:45.584Z,101371.23
2017-09-04T08:21:15.254Z,101370.36
2017-09-04T08:23:44.511Z,101369.01
2017-09-04T08:26:12.961Z,101366.78
2017-09-04T08:28:41.704Z,101373.73
2017-09-04T08:31:10.699Z,101373.32
2017-09-04T08:33:39.119Z,101376.67
2017-09-04T08:36:07.916Z,101376.14
2017-09-04T08:38:38.331Z,101372.23
2017-09-04T08:41:08.292Z,101381.95
2017-09-04T08:43:37.752Z,101379.23
2017-09-04T08:46:06.109Z,101384.29
2017-09-04T08:48:34.728Z,101384.52
2017-09-04T08:51:03.495Z,101388.09
2017-09-04T08:53:32.171Z,101388.00
2017-09-04T08:56:00.805Z,101387.61
2017-09-04T08:58:29.813Z,101387.52
2017-09-04T09:00:59.534Z,101387.91
2017-09-04T09:03:27.892Z,101386.26
2017-09-04T09:05:57.534Z,101388.92
2017-09-04T09:08:26.859Z,101394.52
2017-09-04T09:10:55.223Z,101398.70
2017-09-04T09:13:23.991Z,101394.98
2017-09-04T09:15:52.364Z,101399.61
2017-09-04T09:18:20.816Z,101393.55
2017-09-04T09:20:50.675Z,101389.56
2017-09-04T09:23:19.135Z,101392.16
2017-09-04T09:25:47.624Z,101403.17
2017-09-04T09:28:16.896Z,101401.69
2017-09-04T09:30:45.487Z,101407.13
2017-09-04T09:33:14.001Z,101410.70
2017-09-04T09:35:43.227Z,101411.08
2017-09-04T09:38:12.369Z,101410.44
2017-09-04T09:40:40.787Z,101406.23
2017-09-04T09:43:09.680Z,101406.89
2017-09-04T09:45:38.150Z,101405.29
2017-09-04T09:48:06.505Z,101408.54
2017-09-04T09:50:35.205Z,101410.17
2017-09-04T09:53:03.860Z,101403.09
2017-09-04T09:55:32.630Z,101406.05
2017-09-04T09:58:01.849Z,101401.18
2017-09-04T10:00:30.949Z,101408.62
2017-09-04T10:02:59.434Z,101411.18
2017-09-04T10:05:29.619Z,101407.31
2017-09-04T10:07:58.752Z,101403.53
2017-09-04T10:10:27.870Z,101400.38
2017-09-04T10:12:57.455Z,101399.65
2017-09-04T10:15:25.818Z,101401.27
2017-09-04T10:17:54.223Z,101397.70
2017-09-04T10:20:25.263Z,101398.88
2017-09-04T10:22:53.911Z,101403.82
2017-09-04T10:25:22.839Z,101401.86
2017-09-04T10:27:51.762Z,101400.48
2017-09-04T10:30:20.476Z,101395.47
2017-09-04T10:32:48.844Z,101398.34
2017-09-04T10:35:18.769Z,101391.18
2017-09-04T10:37:47.162Z,101395.58
2017-09-04T10:40:15.549Z,101393.53
2017-09-04T10:42:44.309Z,101392.84
2017-09-04T10:45:12.714Z,101399.77
2017-09-04T10:47:41.090Z,101393.53
2017-09-04T10:50:09.889Z,101398.62
2017-09-04T10:52:38.253Z,101395.73
2017-09-04T10:55:06.639Z,101397.02
2017-09-04T10:57:35.659Z,101380.95
2017-09-04T11:00:04.028Z,101395.22
2017-09-04T11:02:34.418Z,101387.05
2017-09-04T11:05:03.099Z,101392.19
2017-09-04T11:07:31.478Z,101396.63
2017-09-04T11:10:00.776Z,101389.39
2017-09-04T11:12:29.711Z,101386.48
2017-09-04T11:14:58.475Z,101385.80
2017-09-04T11:17:26.843Z,101391.11
2017-09-04T11:19:55.485Z,101384.71
2017-09-04T11:22:23.824Z,101374.42
2017-09-04T11:24:52.340Z,101377.08
2017-09-04T11:27:21.091Z,101375.90
2017-09-04T11:29:50.155Z,101369.19
2017-09-04T11:32:18.493Z,101368.77
2017-09-04T11:34:47.935Z,101380.56
2017-09-04T11:37:16.450Z,101389.52
2017-09-04T11:39:44.864Z,101384.06
2017-09-04T11:42:14.408Z,101377.87
2017-09-04T11:44:42.769Z,101363.22
2017-09-04T11:47:11.923Z,101374.78
2017-09-04T11:49:41.351Z,101369.92
2017-09-04T11:52:09.702Z,101370.18
2017-09-04T11:54:38.918Z,101362.73
2017-09-04T11:57:08.666Z,101365.10
2017-09-04T11:59:40.964Z,101365.13
2017-09-04T12:02:09.655Z,101363.52
2017-09-04T12:04:38.034Z,101366.20
2017-09-04T12:07:06.435Z,101374.82
2017-09-04T12:09:36.683Z,101370.31
2017-09-04T12:12:05.178Z,101375.30
2017-09-04T12:14:34.472Z,101374.29
2017-09-04T12:17:04.225Z,101378.09
2017-09-04T12:19:32.993Z,101377.87
2017-09-04T12:22:01.619Z,101370.34
2017-09-04T12:24:30.441Z,101363.86
2017-09-04T12:26:58.796Z,101361.77
2017-09-04T12:29:27.146Z,101366.27
2017-09-04T12:31:55.920Z,101361.36
2017-09-04T12:34:24.327Z,101361.97
2017-09-04T12:36:53.261Z,101362.92
2017-09-04T12:39:22.187Z,101357.03
2017-09-04T12:41:51.277Z,101360.92
2017-09-04T12:44:20.433Z,101355.34
2017-09-04T12:46:49.911Z,101357.22
2017-09-04T12:49:18.426Z,101353.70
2017-09-04T12:51:46.824Z,101350.38
2017-09-04T12:54:15.528Z,101354.64
2017-09-04T12:56:44.866Z,101352.18
2017-09-04T12:59:13.224Z,101356.61
2017-09-04T13:01:42.085Z,101357.73
2017-09-04T13:04:10.438Z,101356.73
2017-09-04T13:06:38.925Z,101347.84
2017-09-04T13:09:09.240Z,101345.70
2017-09-04T13:14:56.657Z,101334.61
2017-09-04T13:17:30.583Z,101329.94
2017-09-04T13:34:10.097Z,101348.02
2017-09-04T13:39:52.930Z,101351.19
2017-09-04T13:42:27.459Z,101342.33
2017-09-04T13:48:14.623Z,101344.92
2017-09-04T13:53:51.046Z,101352.41
2017-09-04T13:59:29.270Z,101352.19
2017-09-04T14:01:58.284Z,101351.74
2017-09-04T14:04:28.465Z,101346.01
2017-09-04T14:07:03.171Z,101341.41
2017-09-04T14:09:31.522Z,101343.94
2017-09-04T14:15:19.918Z,101359.98
2017-09-04T14:17:53.022Z,101352.17
2017-09-04T14:20:23.356Z,101346.28
2017-09-04T14:22:51.754Z,101356.98
2017-09-04T14:25:20.924Z,101358.67
2017-09-04T14:27:49.416Z,101363.65
2017-09-04T14:30:18.559Z,101359.86
2017-09-04T14:32:47.773Z,101363.91
2017-09-04T14:35:16.412Z,101367.39
2017-09-04T14:37:44.842Z,101363.58
2017-09-04T14:40:15.954Z,101360.17
2017-09-04T14:42:46.922Z,101359.37
2017-09-04T14:45:16.972Z,101356.33
2017-09-04T14:47:46.650Z,101359.18
2017-09-04T14:50:15.251Z,101356.20
2017-09-04T14:52:44.313Z,101356.04
2017-09-04T14:55:12.875Z,101362.91
2017-09-04T14:57:41.251Z,101363.17
2017-09-04T15:00:10.787Z,101362.45
2017-09-04T15:02:39.183Z,101362.14
2017-09-04T15:05:07.579Z,101365.42
2017-09-04T15:07:36.372Z,101367.50
2017-09-04T15:10:04.752Z,101370.07
2017-09-04T15:12:33.157Z,101380.67
2017-09-04T15:15:02.152Z,101390.52
2017-09-04T15:17:30.903Z,101381.81
2017-09-04T15:19:59.285Z,101385.65
2017-09-04T15:22:28.700Z,101382.02
2017-09-04T15:24:57.267Z,101380.55
2017-09-04T15:27:25.631Z,101388.22
2017-09-04T15:29:54.445Z,101383.70
2017-09-04T15:32:23.054Z,101385.86
2017-09-04T15:34:51.542Z,101395.36
2017-09-04T15:37:20.572Z,101394.84
2017-09-04T15:39:48.992Z,101396.36
2017-09-04T15:42:17.404Z,101399.70
2017-09-04T15:44:47.038Z,101403.56
2017-09-04T15:47:15.909Z,101407.95
2017-09-04T15:49:45.195Z,101405.21
2017-09-04T15:52:14.080Z,101409.94
2017-09-04T15:54:42.439Z,101400.72
2017-09-04T15:57:12.350Z,101400.07
2017-09-04T15:59:43.287Z,101396.28
2017-09-04T16:02:11.663Z,101397.33
2017-09-04T16:04:40.088Z,101402.66
2017-09-04T16:07:11.611Z,101405.95
2017-09-04T16:09:40.008Z,101406.97
2017-09-04T16:12:14.524Z,101408.71
2017-09-04T16:14:56.572Z,101411.77
2017-09-04T16:17:35.353Z,101417.69
2017-09-04T16:20:04.142Z,101422.52
2017-09-04T16:22:44.317Z,101421.47
2017-09-04T16:25:13.571Z,101434.02
2017-09-04T16:27:43.743Z,101435.19
2017-09-04T16:30:13.404Z,101434.55
2017-09-04T16:32:43.735Z,101431.73
2017-09-04T16:35:24.849Z,101433.58
2017-09-04T16:37:55.723Z,101432.27
2017-09-04T16:40:24.683Z,101433.52
2017-09-04T16:43:04.251Z,101431.65
2017-09-04T16:45:36.111Z,101431.69
2017-09-04T16:48:05.318Z,101426.54
2017-09-04T16:50:37.294Z,101424.53
2017-09-04T16:53:09.690Z,101426.91
2017-09-04T16:55:39.569Z,101425.44
2017-09-04T16:58:12.769Z,101422.58
2017-09-04T17:00:41.841Z,101436.58
2017-09-04T17:03:10.240Z,101431.14
2017-09-04T17:05:39.459Z,101434.42
2017-09-04T17:08:07.924Z,101431.70
2017-09-04T17:10:42.327Z,101437.02
2017-09-04T17:13:10.753Z,101438.58
2017-09-04T17:15:45.110Z,101439.48
2017-09-04T17:18:13.598Z,101439.73
2017-09-04T17:20:43.644Z,101440.33
2017-09-04T17:23:14.002Z,101439.36
2017-09-04T17:25:44.003Z,101439.14
2017-09-04T17:28:12.429Z,101444.55
2017-09-04T17:30:41.261Z,101443.28
2017-09-04T17:33:10.428Z,101446.95
2017-09-04T17:35:41.089Z,101452.94
2017-09-04T17:38:09.796Z,101447.02
2017-09-04T17:40:38.159Z,101447.69
2017-09-04T17:43:07.482Z,101448.57
2017-09-04T17:45:36.472Z,101446.98
2017-09-04T17:48:05.498Z,101453.27
2017-09-04T17:50:33.926Z,101452.95
2017-09-04T17:53:02.776Z,101452.97
2017-09-04T17:55:31.676Z,101460.73
2017-09-04T17:58:00.143Z,101471.34
2017-09-04T18:00:29.519Z,101475.00
2017-09-04T18:02:57.920Z,101464.55
2017-09-04T18:05:27.251Z,101462.25
2017-09-04T18:07:56.662Z,101472.98
2017-09-04T18:10:25.249Z,101478.48
2017-09-04T18:12:53.666Z,101475.73
2017-09-04T18:15:22.328Z,101478.83
2017-09-04T18:17:51.525Z,101477.45
2017-09-04T18:20:20.998Z,101484.21
2017-09-04T18:22:49.807Z,101473.73
2017-09-04T18:25:18.458Z,101478.80
2017-09-04T18:27:46.951Z,101479.38
2017-09-04T18:30:16.126Z,101475.62
2017-09-04T18:32:44.495Z,101478.97
2017-09-04T18:35:12.858Z,101479.71
2017-09-04T18:37:41.498Z,101491.05
2017-09-04T18:40:10.069Z,101485.52
2017-09-04T18:42:38.444Z,101489.10
2017-09-04T18:45:07.155Z,101490.16
2017-09-04T18:47:35.624Z,101496.12
2017-09-04T18:50:03.981Z,101504.84
2017-09-04T18:52:34.061Z,101501.89
2017-09-04T18:55:02.411Z,101506.88
2017-09-04T18:57:30.819Z,101511.00
2017-09-04T18:59:59.722Z,101509.94
2017-09-04T19:02:28.196Z,101508.02
2017-09-04T19:04:56.589Z,101515.53
2017-09-04T19:07:25.704Z,101518.05
2017-09-04T19:09:54.163Z,101515.39
2017-09-04T19:12:22.526Z,101522.98
2017-09-04T19:14:51.377Z,101520.77
2017-09-04T19:17:19.754Z,101521.28
2017-09-04T19:19:48.132Z,101525.88
2017-09-04T19:22:16.891Z,101531.72
2017-09-04T19:24:45.938Z,101527.69
2017-09-04T19:27:14.329Z,101534.63
2017-09-04T19:29:43.247Z,101535.95
2017-09-04T19:32:12.176Z,101534.84
2017-09-04T19:34:41.303Z,101539.81
2017-09-04T19:37:10.389Z,101538.76
2017-09-04T19:39:38.781Z,101543.50
2017-09-04T19:42:07.284Z,101554.60
2017-09-04T19:44:38.480Z,101562.13
2017-09-04T19:47:07.791Z,101560.45
2017-09-04T19:52:13.078Z,101566.55
2017-09-04T19:54:41.485Z,101568.92
2017-09-04T19:57:10.643Z,101568.13
2017-09-04T19:59:39.306Z,101576.04
2017-09-04T20:02:08.434Z,101570.69
2017-09-04T20:04:36.853Z,101578.49
2017-09-04T20:07:05.518Z,101575.73
2017-09-04T20:09:33.897Z,101576.09
2017-09-04T20:12:02.284Z,101576.57
2017-09-04T20:14:31.779Z,101582.01
2017-09-04T20:17:01.170Z,101578.81
2017-09-04T20:19:31.019Z,101578.64
2017-09-04T20:22:00.017Z,101576.66
2017-09-04T20:24:28.678Z,101572.94
2017-09-04T20:26:57.059Z,101572.33
2017-09-04T20:29:25.945Z,101578.13
2017-09-04T20:31:54.287Z,101581.34
2017-09-04T20:34:22.696Z,101582.43
2017-09-04T20:36:51.738Z,101578.70
2017-09-04T20:39:21.105Z,101580.50
2017-09-04T20:41:49.575Z,101585.41
2017-09-04T20:44:18.489Z,101580.64
2017-09-04T20:46:46.888Z,101580.83
2017-09-04T20:49:15.854Z,101580.20
2017-09-04T20:51:44.572Z,101589.36
2017-09-04T20:54:12.942Z,101584.22
2017-09-04T20:56:41.305Z,101585.53
2017-09-04T20:59:10.172Z,101582.75
2017-09-04T21:01:38.548Z,101591.86
2017-09-04T21:04:06.920Z,101589.99
2017-09-04T21:06:36.484Z,101591.55
2017-09-04T21:09:04.852Z,101603.23
2017-09-04T21:11:33.229Z,101595.39
2017-09-04T21:14:02.715Z,101596.41
2017-09-04T21:16:31.104Z,101591.98
2017-09-04T21:18:59.489Z,101599.46
2017-09-04T21:21:28.206Z,101602.65
2017-09-04T21:23:56.920Z,101599.80
2017-09-04T21:26:25.254Z,101602.73
2017-09-04T21:28:53.985Z,101597.66
2017-09-04T21:31:22.352Z,101601.88
2017-09-04T21:33:51.503Z,101601.97
2017-09-04T21:36:20.126Z,101603.22
2017-09-04T21:38:49.098Z,101597.17
2017-09-04T21:41:17.546Z,101608.88
2017-09-04T21:43:47.208Z,101608.36
2017-09-04T21:46:15.567Z,101609.31
2017-09-04T21:48:44.912Z,101611.09
2017-09-04T21:51:14.094Z,101604.48
2017-09-04T21:53:43.365Z,101611.30
2017-09-04T21:56:11.743Z,101611.77
2017-09-04T21:58:40.391Z,101604.86
2017-09-04T22:01:09.677Z,101607.09
2017-09-04T22:03:38.022Z,101606.96
2017-09-04T22:06:08.790Z,101603.59
2017-09-04T22:08:37.199Z,101616.38
2017-09-04T22:11:06.486Z,101610.05
2017-09-04T22:13:35.290Z,101606.06
2017-09-04T22:16:03.683Z,101613.31
2017-09-04T22:18:32.129Z,101619.36
2017-09-04T22:21:01.542Z,101619.11
2017-09-04T22:23:29.931Z,101611.79
2017-09-04T22:25:58.905Z,101619.38
2017-09-04T22:28:27.892Z,101624.31
2017-09-04T22:30:56.606Z,101626.64
2017-09-04T22:33:27.419Z,101624.06
2017-09-04T22:35:56.326Z,101620.61
2017-09-04T22:38:24.698Z,101624.02
2017-09-04T22:40:53.082Z,101624.71
2017-09-04T22:43:21.793Z,101632.57
2017-09-04T22:45:50.199Z,101635.83
2017-09-04T22:48:18.633Z,101639.58
2017-09-04T22:50:47.607Z,101634.05
2017-09-04T22:53:16.005Z,101637.11
2017-09-04T22:55:45.355Z,101633.27
2017-09-04T22:58:14.957Z,101635.23
2017-09-04T23:00:43.408Z,101646.73
2017-09-04T23:03:12.705Z,101649.38
2017-09-04T23:05:42.423Z,101658.32
2017-09-04T23:08:11.707Z,101654.31
2017-09-04T23:10:40.122Z,101647.74
2017-09-04T23:13:08.892Z,101653.61
2017-09-04T23:15:37.267Z,101652.70
2017-09-04T23:18:05.659Z,101656.78
2017-09-04T23:20:34.811Z,101658.66
2017-09-04T23:23:03.398Z,101660.54
2017-09-04T23:25:32.530Z,101665.03
2017-09-04T23:28:01.438Z,101661.96
2017-09-04T23:30:29.841Z,101668.55
2017-09-04T23:32:58.251Z,101664.50
2017-09-04T23:35:27.284Z,101665.95
2017-09-04T23:37:56.547Z,101662.80
2017-09-04T23:40:25.405Z,101668.58
2017-09-04T23:42:54.833Z,101667.57
2017-09-04T23:45:24.121Z,101659.91
2017-09-04T23:47:54.258Z,101657.70
2017-09-04T23:50:23.929Z,101655.92
2017-09-04T23:52:52.396Z,101661.01
2017-09-04T23:55:21.523Z,101663.05
2017-09-04T23:57:51.328Z,101656.93
